sensor_id;sensor_type;location;lat;lon;timestamp;P1;durP1;ratioP1;P2;durP2;ratioP2
45887;SDS011;31595;51.418;7.572;2022-09-30T00:00:00;6.55;;;4.60;;
45887;SDS011;31595;51.418;7.572;2022-09-30T00:02:27;5.80;;;4.32;;
45887;SDS011;31595;51.418;7.572;2022-09-30T00:04:55;6.68;;;4.28;;
45887;SDS011;31595;51.418;7.572;2022-09-30T00:07:22;5.75;;;4.30;;
45887;SDS011;31595;51.418;7.572;2022-09-30T00:09:51;7.03;;;4.43;;
45887;SDS011;31595;51.418;7.572;2022-09-30T00:12:18;4.70;;;3.95;;
45887;SDS011;31595;51.418;7.572;2022-09-30T00:14:46;6.13;;;4.15;;
45887;SDS011;31595;51.418;7.572;2022-09-30T00:17:13;6.10;;;4.38;;
45887;SDS011;31595;51.418;7.572;2022-09-30T00:19:40;5.55;;;4.22;;
45887;SDS011;31595;51.418;7.572;2022-09-30T00:22:07;5.32;;;3.90;;
45887;SDS011;31595;51.418;7.572;2022-09-30T00:24:37;4.85;;;3.70;;
45887;SDS011;31595;51.418;7.572;2022-09-30T00:27:06;5.18;;;3.78;;
45887;SDS011;31595;51.418;7.572;2022-09-30T00:29:33;6.07;;;4.28;;
45887;SDS011;31595;51.418;7.572;2022-09-30T00:32:03;6.80;;;4.30;;
45887;SDS011;31595;51.418;7.572;2022-09-30T00:34:30;6.30;;;4.50;;
45887;SDS011;31595;51.418;7.572;2022-09-30T00:36:58;7.05;;;4.72;;
45887;SDS011;31595;51.418;7.572;2022-09-30T00:39:28;6.95;;;5.03;;
45887;SDS011;31595;51.418;7.572;2022-09-30T00:41:56;6.63;;;4.85;;
45887;SDS011;31595;51.418;7.572;2022-09-30T00:50:24;8.35;;;4.43;;
45887;SDS011;31595;51.418;7.572;2022-09-30T00:53:01;7.43;;;4.43;;
45887;SDS011;31595;51.418;7.572;2022-09-30T00:55:35;5.05;;;4.03;;
45887;SDS011;31595;51.418;7.572;2022-09-30T00:58:10;4.57;;;3.92;;
45887;SDS011;31595;51.418;7.572;2022-09-30T01:00:44;5.90;;;4.75;;
45887;SDS011;31595;51.418;7.572;2022-09-30T01:05:40;5.57;;;4.30;;
45887;SDS011;31595;51.418;7.572;2022-09-30T01:08:08;6.40;;;4.55;;
45887;SDS011;31595;51.418;7.572;2022-09-30T01:10:37;6.35;;;4.07;;
45887;SDS011;31595;51.418;7.572;2022-09-30T01:13:04;5.82;;;4.30;;
45887;SDS011;31595;51.418;7.572;2022-09-30T01:15:35;5.97;;;4.32;;
45887;SDS011;31595;51.418;7.572;2022-09-30T01:18:17;5.90;;;4.80;;
45887;SDS011;31595;51.418;7.572;2022-09-30T01:21:05;5.82;;;4.60;;
45887;SDS011;31595;51.418;7.572;2022-09-30T01:23:49;5.70;;;4.82;;
45887;SDS011;31595;51.418;7.572;2022-09-30T01:26:41;5.97;;;4.75;;
45887;SDS011;31595;51.418;7.572;2022-09-30T01:32:41;6.10;;;4.50;;
45887;SDS011;31595;51.418;7.572;2022-09-30T01:35:17;6.30;;;4.55;;
45887;SDS011;31595;51.418;7.572;2022-09-30T01:37:53;5.38;;;4.43;;
45887;SDS011;31595;51.418;7.572;2022-09-30T01:40:30;5.22;;;4.22;;
45887;SDS011;31595;51.418;7.572;2022-09-30T01:43:06;6.43;;;5.18;;
45887;SDS011;31595;51.418;7.572;2022-09-30T01:45:39;12.43;;;5.10;;
45887;SDS011;31595;51.418;7.572;2022-09-30T01:48:13;6.40;;;4.70;;
45887;SDS011;31595;51.418;7.572;2022-09-30T01:50:46;6.95;;;5.03;;
45887;SDS011;31595;51.418;7.572;2022-09-30T01:53:23;6.90;;;4.45;;
45887;SDS011;31595;51.418;7.572;2022-09-30T01:55:57;5.85;;;4.47;;
45887;SDS011;31595;51.418;7.572;2022-09-30T01:58:36;6.15;;;4.50;;
45887;SDS011;31595;51.418;7.572;2022-09-30T02:01:10;5.47;;;4.13;;
45887;SDS011;31595;51.418;7.572;2022-09-30T02:03:46;5.97;;;4.10;;
45887;SDS011;31595;51.418;7.572;2022-09-30T02:06:17;5.80;;;3.97;;
45887;SDS011;31595;51.418;7.572;2022-09-30T02:08:52;6.45;;;4.43;;
45887;SDS011;31595;51.418;7.572;2022-09-30T02:11:24;5.80;;;4.65;;
45887;SDS011;31595;51.418;7.572;2022-09-30T02:13:54;5.28;;;3.97;;
45887;SDS011;31595;51.418;7.572;2022-09-30T02:16:30;5.75;;;4.70;;
45887;SDS011;31595;51.418;7.572;2022-09-30T02:19:07;4.88;;;4.28;;
45887;SDS011;31595;51.418;7.572;2022-09-30T02:21:40;6.80;;;4.45;;
45887;SDS011;31595;51.418;7.572;2022-09-30T02:24:11;6.72;;;4.93;;
45887;SDS011;31595;51.418;7.572;2022-09-30T02:26:43;7.00;;;4.70;;
45887;SDS011;31595;51.418;7.572;2022-09-30T02:29:17;6.50;;;4.60;;
45887;SDS011;31595;51.418;7.572;2022-09-30T02:31:49;5.85;;;4.93;;
45887;SDS011;31595;51.418;7.572;2022-09-30T02:34:24;6.03;;;4.18;;
45887;SDS011;31595;51.418;7.572;2022-09-30T02:36:56;4.65;;;3.92;;
45887;SDS011;31595;51.418;7.572;2022-09-30T02:39:31;4.38;;;3.90;;
45887;SDS011;31595;51.418;7.572;2022-09-30T02:42:07;4.95;;;3.90;;
45887;SDS011;31595;51.418;7.572;2022-09-30T02:44:40;6.07;;;4.22;;
45887;SDS011;31595;51.418;7.572;2022-09-30T02:47:10;5.65;;;4.30;;
45887;SDS011;31595;51.418;7.572;2022-09-30T02:49:44;5.80;;;4.55;;
45887;SDS011;31595;51.418;7.572;2022-09-30T02:52:17;7.70;;;4.60;;
45887;SDS011;31595;51.418;7.572;2022-09-30T02:54:58;5.50;;;4.30;;
45887;SDS011;31595;51.418;7.572;2022-09-30T02:57:38;5.70;;;4.22;;
45887;SDS011;31595;51.418;7.572;2022-09-30T03:00:11;7.20;;;4.53;;
45887;SDS011;31595;51.418;7.572;2022-09-30T03:02:41;6.88;;;4.65;;
45887;SDS011;31595;51.418;7.572;2022-09-30T03:05:09;5.93;;;4.40;;
45887;SDS011;31595;51.418;7.572;2022-09-30T03:07:37;5.90;;;4.55;;
45887;SDS011;31595;51.418;7.572;2022-09-30T03:10:11;6.63;;;4.13;;
45887;SDS011;31595;51.418;7.572;2022-09-30T03:12:40;5.03;;;4.50;;
45887;SDS011;31595;51.418;7.572;2022-09-30T03:15:29;5.43;;;3.80;;
45887;SDS011;31595;51.418;7.572;2022-09-30T03:18:12;6.63;;;3.67;;
45887;SDS011;31595;51.418;7.572;2022-09-30T03:21:00;6.15;;;4.22;;
45887;SDS011;31595;51.418;7.572;2022-09-30T03:23:38;5.65;;;3.80;;
45887;SDS011;31595;51.418;7.572;2022-09-30T03:26:29;5.40;;;4.20;;
45887;SDS011;31595;51.418;7.572;2022-09-30T03:29:06;6.15;;;4.18;;
45887;SDS011;31595;51.418;7.572;2022-09-30T03:31:43;5.47;;;4.43;;
45887;SDS011;31595;51.418;7.572;2022-09-30T03:34:20;6.75;;;4.57;;
45887;SDS011;31595;51.418;7.572;2022-09-30T03:36:59;7.75;;;5.47;;
45887;SDS011;31595;51.418;7.572;2022-09-30T03:39:36;6.00;;;5.03;;
45887;SDS011;31595;51.418;7.572;2022-09-30T03:42:14;8.70;;;5.13;;
45887;SDS011;31595;51.418;7.572;2022-09-30T03:44:49;5.97;;;4.28;;
45887;SDS011;31595;51.418;7.572;2022-09-30T03:47:23;5.15;;;4.60;;
45887;SDS011;31595;51.418;7.572;2022-09-30T03:49:54;9.73;;;5.30;;
45887;SDS011;31595;51.418;7.572;2022-09-30T03:52:27;5.70;;;4.53;;
45887;SDS011;31595;51.418;7.572;2022-09-30T03:54:57;5.43;;;4.18;;
45887;SDS011;31595;51.418;7.572;2022-09-30T03:57:27;6.40;;;4.43;;
45887;SDS011;31595;51.418;7.572;2022-09-30T03:59:55;7.10;;;4.50;;
45887;SDS011;31595;51.418;7.572;2022-09-30T04:02:23;5.90;;;5.10;;
45887;SDS011;31595;51.418;7.572;2022-09-30T04:04:50;6.50;;;4.35;;
45887;SDS011;31595;51.418;7.572;2022-09-30T04:07:18;6.35;;;4.90;;
45887;SDS011;31595;51.418;7.572;2022-09-30T04:09:47;5.40;;;4.57;;
45887;SDS011;31595;51.418;7.572;2022-09-30T04:12:14;6.60;;;4.90;;
45887;SDS011;31595;51.418;7.572;2022-09-30T04:14:41;6.18;;;4.35;;
45887;SDS011;31595;51.418;7.572;2022-09-30T04:17:08;6.03;;;4.47;;
45887;SDS011;31595;51.418;7.572;2022-09-30T04:19:36;7.13;;;4.95;;
45887;SDS011;31595;51.418;7.572;2022-09-30T04:22:05;6.47;;;4.50;;
45887;SDS011;31595;51.418;7.572;2022-09-30T04:24:32;7.93;;;4.68;;
45887;SDS011;31595;51.418;7.572;2022-09-30T04:27:01;5.18;;;4.10;;
45887;SDS011;31595;51.418;7.572;2022-09-30T04:29:29;7.38;;;4.82;;
45887;SDS011;31595;51.418;7.572;2022-09-30T04:31:56;6.85;;;5.22;;
45887;SDS011;31595;51.418;7.572;2022-09-30T04:34:23;7.13;;;4.72;;
45887;SDS011;31595;51.418;7.572;2022-09-30T04:36:51;6.35;;;4.68;;
45887;SDS011;31595;51.418;7.572;2022-09-30T04:39:18;5.43;;;4.45;;
45887;SDS011;31595;51.418;7.572;2022-09-30T04:41:45;5.80;;;4.22;;
45887;SDS011;31595;51.418;7.572;2022-09-30T04:44:14;5.32;;;4.25;;
45887;SDS011;31595;51.418;7.572;2022-09-30T04:46:41;6.03;;;5.10;;
45887;SDS011;31595;51.418;7.572;2022-09-30T04:49:08;5.40;;;4.00;;
45887;SDS011;31595;51.418;7.572;2022-09-30T04:51:36;8.13;;;4.50;;
45887;SDS011;31595;51.418;7.572;2022-09-30T04:54:08;6.18;;;4.60;;
45887;SDS011;31595;51.418;7.572;2022-09-30T04:56:35;6.53;;;4.85;;
45887;SDS011;31595;51.418;7.572;2022-09-30T04:59:02;7.25;;;5.22;;
45887;SDS011;31595;51.418;7.572;2022-09-30T05:01:31;7.55;;;4.90;;
45887;SDS011;31595;51.418;7.572;2022-09-30T05:03:58;8.20;;;5.43;;
45887;SDS011;31595;51.418;7.572;2022-09-30T05:06:26;7.32;;;5.95;;
45887;SDS011;31595;51.418;7.572;2022-09-30T05:08:53;10.73;;;5.40;;
45887;SDS011;31595;51.418;7.572;2022-09-30T05:11:21;7.53;;;4.97;;
45887;SDS011;31595;51.418;7.572;2022-09-30T05:13:48;7.45;;;5.47;;
45887;SDS011;31595;51.418;7.572;2022-09-30T05:16:16;7.75;;;5.78;;
45887;SDS011;31595;51.418;7.572;2022-09-30T05:18:45;6.68;;;4.70;;
45887;SDS011;31595;51.418;7.572;2022-09-30T05:21:13;5.72;;;4.85;;
45887;SDS011;31595;51.418;7.572;2022-09-30T05:23:41;5.60;;;4.73;;
45887;SDS011;31595;51.418;7.572;2022-09-30T05:26:09;6.70;;;5.05;;
45887;SDS011;31595;51.418;7.572;2022-09-30T05:28:36;7.75;;;5.50;;
45887;SDS011;31595;51.418;7.572;2022-09-30T05:31:03;7.30;;;4.82;;
45887;SDS011;31595;51.418;7.572;2022-09-30T05:33:32;5.88;;;4.82;;
45887;SDS011;31595;51.418;7.572;2022-09-30T05:36:02;5.82;;;4.65;;
45887;SDS011;31595;51.418;7.572;2022-09-30T05:38:31;9.32;;;5.28;;
45887;SDS011;31595;51.418;7.572;2022-09-30T05:41:04;7.20;;;5.22;;
45887;SDS011;31595;51.418;7.572;2022-09-30T05:43:33;7.10;;;5.68;;
45887;SDS011;31595;51.418;7.572;2022-09-30T05:46:00;6.95;;;4.95;;
45887;SDS011;31595;51.418;7.572;2022-09-30T05:48:27;6.18;;;4.50;;
45887;SDS011;31595;51.418;7.572;2022-09-30T05:50:55;9.55;;;5.38;;
45887;SDS011;31595;51.418;7.572;2022-09-30T05:53:24;7.05;;;5.00;;
45887;SDS011;31595;51.418;7.572;2022-09-30T05:55:51;7.85;;;4.95;;
45887;SDS011;31595;51.418;7.572;2022-09-30T05:58:19;7.28;;;5.32;;
45887;SDS011;31595;51.418;7.572;2022-09-30T06:00:47;5.95;;;4.60;;
45887;SDS011;31595;51.418;7.572;2022-09-30T06:03:15;5.00;;;3.88;;
45887;SDS011;31595;51.418;7.572;2022-09-30T06:05:43;7.35;;;5.20;;
45887;SDS011;31595;51.418;7.572;2022-09-30T06:08:11;10.80;;;5.70;;
45887;SDS011;31595;51.418;7.572;2022-09-30T06:10:41;6.05;;;5.05;;
45887;SDS011;31595;51.418;7.572;2022-09-30T06:13:09;8.23;;;6.32;;
45887;SDS011;31595;51.418;7.572;2022-09-30T06:15:36;6.95;;;4.85;;
45887;SDS011;31595;51.418;7.572;2022-09-30T06:18:04;6.32;;;5.63;;
45887;SDS011;31595;51.418;7.572;2022-09-30T06:20:32;9.13;;;7.75;;
45887;SDS011;31595;51.418;7.572;2022-09-30T06:22:59;7.28;;;6.43;;
45887;SDS011;31595;51.418;7.572;2022-09-30T06:25:27;7.43;;;6.57;;
45887;SDS011;31595;51.418;7.572;2022-09-30T06:27:56;8.05;;;5.60;;
45887;SDS011;31595;51.418;7.572;2022-09-30T06:30:23;6.63;;;5.15;;
45887;SDS011;31595;51.418;7.572;2022-09-30T06:32:51;5.72;;;4.78;;
45887;SDS011;31595;51.418;7.572;2022-09-30T06:35:21;5.32;;;4.70;;
45887;SDS011;31595;51.418;7.572;2022-09-30T06:37:49;7.60;;;4.45;;
45887;SDS011;31595;51.418;7.572;2022-09-30T06:40:17;9.70;;;5.70;;
45887;SDS011;31595;51.418;7.572;2022-09-30T06:42:45;6.70;;;4.22;;
45887;SDS011;31595;51.418;7.572;2022-09-30T06:45:15;7.75;;;4.53;;
45887;SDS011;31595;51.418;7.572;2022-09-30T06:50:12;5.63;;;4.03;;
45887;SDS011;31595;51.418;7.572;2022-09-30T06:52:40;6.00;;;4.13;;
45887;SDS011;31595;51.418;7.572;2022-09-30T06:55:07;6.55;;;5.53;;
45887;SDS011;31595;51.418;7.572;2022-09-30T06:57:35;7.72;;;5.38;;
45887;SDS011;31595;51.418;7.572;2022-09-30T07:00:02;7.03;;;5.85;;
45887;SDS011;31595;51.418;7.572;2022-09-30T07:02:32;7.38;;;4.40;;
45887;SDS011;31595;51.418;7.572;2022-09-30T07:04:59;10.63;;;9.03;;
45887;SDS011;31595;51.418;7.572;2022-09-30T07:07:28;12.13;;;10.97;;
45887;SDS011;31595;51.418;7.572;2022-09-30T07:09:59;7.75;;;6.30;;
45887;SDS011;31595;51.418;7.572;2022-09-30T07:12:26;5.68;;;4.95;;
45887;SDS011;31595;51.418;7.572;2022-09-30T07:14:53;6.38;;;5.07;;
45887;SDS011;31595;51.418;7.572;2022-09-30T07:17:21;5.47;;;4.70;;
45887;SDS011;31595;51.418;7.572;2022-09-30T07:19:50;7.18;;;4.15;;
45887;SDS011;31595;51.418;7.572;2022-09-30T07:22:17;4.43;;;3.90;;
45887;SDS011;31595;51.418;7.572;2022-09-30T07:24:57;5.32;;;3.80;;
45887;SDS011;31595;51.418;7.572;2022-09-30T07:27:25;4.78;;;4.15;;
45887;SDS011;31595;51.418;7.572;2022-09-30T07:29:53;8.18;;;6.45;;
45887;SDS011;31595;51.418;7.572;2022-09-30T07:32:21;6.95;;;5.20;;
45887;SDS011;31595;51.418;7.572;2022-09-30T07:34:50;7.10;;;5.13;;
45887;SDS011;31595;51.418;7.572;2022-09-30T07:37:17;5.72;;;5.13;;
45887;SDS011;31595;51.418;7.572;2022-09-30T07:39:46;6.55;;;4.90;;
45887;SDS011;31595;51.418;7.572;2022-09-30T07:42:15;6.07;;;4.53;;
45887;SDS011;31595;51.418;7.572;2022-09-30T07:44:45;7.38;;;5.25;;
45887;SDS011;31595;51.418;7.572;2022-09-30T07:47:12;6.32;;;5.05;;
45887;SDS011;31595;51.418;7.572;2022-09-30T07:49:41;5.25;;;4.75;;
45887;SDS011;31595;51.418;7.572;2022-09-30T07:52:10;5.25;;;4.70;;
45887;SDS011;31595;51.418;7.572;2022-09-30T07:54:38;6.30;;;5.20;;
45887;SDS011;31595;51.418;7.572;2022-09-30T07:57:07;8.52;;;4.60;;
45887;SDS011;31595;51.418;7.572;2022-09-30T07:59:35;5.57;;;4.97;;
45887;SDS011;31595;51.418;7.572;2022-09-30T08:02:04;7.20;;;4.57;;
45887;SDS011;31595;51.418;7.572;2022-09-30T08:07:01;5.57;;;4.88;;
45887;SDS011;31595;51.418;7.572;2022-09-30T08:09:31;6.32;;;4.97;;
45887;SDS011;31595;51.418;7.572;2022-09-30T08:12:00;6.75;;;5.03;;
45887;SDS011;31595;51.418;7.572;2022-09-30T08:16:55;5.57;;;5.07;;
45887;SDS011;31595;51.418;7.572;2022-09-30T08:19:25;5.78;;;4.80;;
45887;SDS011;31595;51.418;7.572;2022-09-30T08:21:53;6.25;;;5.07;;
45887;SDS011;31595;51.418;7.572;2022-09-30T08:24:22;6.03;;;5.28;;
45887;SDS011;31595;51.418;7.572;2022-09-30T08:26:52;7.47;;;4.80;;
45887;SDS011;31595;51.418;7.572;2022-09-30T08:29:21;5.55;;;4.40;;
45887;SDS011;31595;51.418;7.572;2022-09-30T08:31:48;5.72;;;4.78;;
45887;SDS011;31595;51.418;7.572;2022-09-30T08:34:16;6.28;;;5.10;;
45887;SDS011;31595;51.418;7.572;2022-09-30T08:36:43;7.85;;;5.22;;
45887;SDS011;31595;51.418;7.572;2022-09-30T08:39:11;6.27;;;5.10;;
45887;SDS011;31595;51.418;7.572;2022-09-30T08:41:43;5.82;;;5.03;;
45887;SDS011;31595;51.418;7.572;2022-09-30T08:44:22;8.23;;;5.28;;
45887;SDS011;31595;51.418;7.572;2022-09-30T08:46:58;6.20;;;5.40;;
45887;SDS011;31595;51.418;7.572;2022-09-30T08:49:40;7.32;;;4.88;;
45887;SDS011;31595;51.418;7.572;2022-09-30T08:52:16;6.35;;;5.05;;
45887;SDS011;31595;51.418;7.572;2022-09-30T08:54:47;7.10;;;4.65;;
45887;SDS011;31595;51.418;7.572;2022-09-30T08:57:16;6.57;;;4.82;;
45887;SDS011;31595;51.418;7.572;2022-09-30T08:59:48;8.00;;;5.60;;
45887;SDS011;31595;51.418;7.572;2022-09-30T09:02:20;5.72;;;5.13;;
45887;SDS011;31595;51.418;7.572;2022-09-30T09:04:52;6.20;;;4.78;;
45887;SDS011;31595;51.418;7.572;2022-09-30T09:07:33;6.03;;;4.80;;
45887;SDS011;31595;51.418;7.572;2022-09-30T09:10:10;6.22;;;4.40;;
45887;SDS011;31595;51.418;7.572;2022-09-30T09:12:50;5.97;;;4.80;;
45887;SDS011;31595;51.418;7.572;2022-09-30T09:18:22;5.90;;;4.32;;
45887;SDS011;31595;51.418;7.572;2022-09-30T09:21:09;5.10;;;4.32;;
45887;SDS011;31595;51.418;7.572;2022-09-30T09:23:46;5.03;;;4.47;;
45887;SDS011;31595;51.418;7.572;2022-09-30T09:26:15;6.57;;;4.90;;
45887;SDS011;31595;51.418;7.572;2022-09-30T09:28:44;5.07;;;3.85;;
45887;SDS011;31595;51.418;7.572;2022-09-30T09:31:20;8.13;;;4.72;;
45887;SDS011;31595;51.418;7.572;2022-09-30T09:33:48;5.95;;;4.38;;
45887;SDS011;31595;51.418;7.572;2022-09-30T09:36:25;5.47;;;4.43;;
45887;SDS011;31595;51.418;7.572;2022-09-30T09:39:11;6.05;;;4.60;;
45887;SDS011;31595;51.418;7.572;2022-09-30T09:41:55;5.28;;;4.30;;
45887;SDS011;31595;51.418;7.572;2022-09-30T09:44:32;6.43;;;4.53;;
45887;SDS011;31595;51.418;7.572;2022-09-30T09:47:08;5.82;;;3.90;;
45887;SDS011;31595;51.418;7.572;2022-09-30T09:49:40;4.63;;;4.03;;
45887;SDS011;31595;51.418;7.572;2022-09-30T09:55:08;6.75;;;4.18;;
45887;SDS011;31595;51.418;7.572;2022-09-30T09:57:36;6.63;;;4.28;;
45887;SDS011;31595;51.418;7.572;2022-09-30T10:00:05;5.45;;;4.05;;
45887;SDS011;31595;51.418;7.572;2022-09-30T10:03:00;5.65;;;3.97;;
45887;SDS011;31595;51.418;7.572;2022-09-30T10:08:07;5.38;;;4.07;;
45887;SDS011;31595;51.418;7.572;2022-09-30T10:10:42;5.22;;;4.65;;
45887;SDS011;31595;51.418;7.572;2022-09-30T10:13:16;4.93;;;3.35;;
45887;SDS011;31595;51.418;7.572;2022-09-30T10:15:44;5.72;;;3.10;;
45887;SDS011;31595;51.418;7.572;2022-09-30T10:23:22;3.33;;;2.50;;
45887;SDS011;31595;51.418;7.572;2022-09-30T10:25:54;3.90;;;3.10;;
45887;SDS011;31595;51.418;7.572;2022-09-30T10:28:23;3.38;;;2.70;;
45887;SDS011;31595;51.418;7.572;2022-09-30T10:30:54;4.35;;;3.17;;
45887;SDS011;31595;51.418;7.572;2022-09-30T10:33:26;5.03;;;3.03;;
45887;SDS011;31595;51.418;7.572;2022-09-30T10:36:00;3.90;;;2.88;;
45887;SDS011;31595;51.418;7.572;2022-09-30T10:38:33;3.38;;;2.70;;
45887;SDS011;31595;51.418;7.572;2022-09-30T10:41:03;5.18;;;3.30;;
45887;SDS011;31595;51.418;7.572;2022-09-30T10:43:36;4.13;;;3.08;;
45887;SDS011;31595;51.418;7.572;2022-09-30T10:46:08;5.60;;;4.20;;
45887;SDS011;31595;51.418;7.572;2022-09-30T10:48:38;6.43;;;3.97;;
45887;SDS011;31595;51.418;7.572;2022-09-30T10:51:16;5.13;;;3.60;;
45887;SDS011;31595;51.418;7.572;2022-09-30T10:53:49;3.70;;;2.95;;
45887;SDS011;31595;51.418;7.572;2022-09-30T10:56:30;5.68;;;3.28;;
45887;SDS011;31595;51.418;7.572;2022-09-30T10:59:04;5.68;;;3.50;;
45887;SDS011;31595;51.418;7.572;2022-09-30T11:01:42;3.40;;;2.92;;
45887;SDS011;31595;51.418;7.572;2022-09-30T11:04:17;3.17;;;2.75;;
45887;SDS011;31595;51.418;7.572;2022-09-30T11:06:52;4.50;;;2.88;;
45887;SDS011;31595;51.418;7.572;2022-09-30T11:09:25;5.35;;;3.13;;
45887;SDS011;31595;51.418;7.572;2022-09-30T11:12:01;4.65;;;3.38;;
45887;SDS011;31595;51.418;7.572;2022-09-30T11:14:37;5.68;;;2.83;;
45887;SDS011;31595;51.418;7.572;2022-09-30T11:17:12;4.65;;;2.92;;
45887;SDS011;31595;51.418;7.572;2022-09-30T11:19:55;4.18;;;2.70;;
45887;SDS011;31595;51.418;7.572;2022-09-30T11:22:38;4.22;;;2.42;;
45887;SDS011;31595;51.418;7.572;2022-09-30T11:25:11;3.37;;;2.63;;
45887;SDS011;31595;51.418;7.572;2022-09-30T11:27:42;3.95;;;2.70;;
45887;SDS011;31595;51.418;7.572;2022-09-30T11:30:23;2.92;;;2.47;;
45887;SDS011;31595;51.418;7.572;2022-09-30T11:32:59;3.90;;;3.25;;
45887;SDS011;31595;51.418;7.572;2022-09-30T11:35:44;2.58;;;2.00;;
45887;SDS011;31595;51.418;7.572;2022-09-30T11:38:27;2.67;;;2.30;;
45887;SDS011;31595;51.418;7.572;2022-09-30T11:41:21;3.40;;;2.47;;
45887;SDS011;31595;51.418;7.572;2022-09-30T11:43:55;3.55;;;2.30;;
45887;SDS011;31595;51.418;7.572;2022-09-30T11:46:41;3.03;;;1.95;;
45887;SDS011;31595;51.418;7.572;2022-09-30T11:49:32;4.70;;;2.63;;
45887;SDS011;31595;51.418;7.572;2022-09-30T11:52:17;2.85;;;2.22;;
45887;SDS011;31595;51.418;7.572;2022-09-30T11:54:57;3.80;;;2.40;;
45887;SDS011;31595;51.418;7.572;2022-09-30T11:57:42;3.88;;;2.10;;
45887;SDS011;31595;51.418;7.572;2022-09-30T12:00:15;3.10;;;2.13;;
45887;SDS011;31595;51.418;7.572;2022-09-30T12:02:45;4.28;;;2.65;;
45887;SDS011;31595;51.418;7.572;2022-09-30T12:05:16;3.88;;;2.38;;
45887;SDS011;31595;51.418;7.572;2022-09-30T12:07:51;3.25;;;2.42;;
45887;SDS011;31595;51.418;7.572;2022-09-30T12:10:22;5.05;;;2.60;;
45887;SDS011;31595;51.418;7.572;2022-09-30T12:12:53;4.97;;;2.17;;
45887;SDS011;31595;51.418;7.572;2022-09-30T12:15:24;3.30;;;2.30;;
45887;SDS011;31595;51.418;7.572;2022-09-30T12:17:54;3.85;;;2.45;;
45887;SDS011;31595;51.418;7.572;2022-09-30T12:20:26;2.55;;;2.22;;
45887;SDS011;31595;51.418;7.572;2022-09-30T12:23:00;5.25;;;3.80;;
45887;SDS011;31595;51.418;7.572;2022-09-30T12:25:37;6.95;;;5.13;;
45887;SDS011;31595;51.418;7.572;2022-09-30T12:28:09;5.30;;;4.43;;
45887;SDS011;31595;51.418;7.572;2022-09-30T12:31:03;5.22;;;3.00;;
45887;SDS011;31595;51.418;7.572;2022-09-30T12:33:45;2.97;;;2.25;;
45887;SDS011;31595;51.418;7.572;2022-09-30T12:36:22;5.78;;;5.20;;
45887;SDS011;31595;51.418;7.572;2022-09-30T12:39:13;2.67;;;2.22;;
45887;SDS011;31595;51.418;7.572;2022-09-30T12:42:01;3.75;;;2.53;;
45887;SDS011;31595;51.418;7.572;2022-09-30T12:44:49;3.05;;;2.17;;
45887;SDS011;31595;51.418;7.572;2022-09-30T12:47:35;4.68;;;2.47;;
45887;SDS011;31595;51.418;7.572;2022-09-30T12:50:11;4.45;;;3.08;;
45887;SDS011;31595;51.418;7.572;2022-09-30T12:52:41;3.72;;;2.30;;
45887;SDS011;31595;51.418;7.572;2022-09-30T12:55:14;4.63;;;3.30;;
45887;SDS011;31595;51.418;7.572;2022-09-30T13:00:16;4.13;;;2.47;;
45887;SDS011;31595;51.418;7.572;2022-09-30T13:02:46;2.88;;;2.40;;
45887;SDS011;31595;51.418;7.572;2022-09-30T13:08:21;3.75;;;2.45;;
45887;SDS011;31595;51.418;7.572;2022-09-30T13:11:18;2.72;;;2.35;;
45887;SDS011;31595;51.418;7.572;2022-09-30T13:13:56;2.60;;;2.00;;
45887;SDS011;31595;51.418;7.572;2022-09-30T13:19:29;3.25;;;2.38;;
45887;SDS011;31595;51.418;7.572;2022-09-30T13:25:18;3.67;;;2.38;;
45887;SDS011;31595;51.418;7.572;2022-09-30T13:27:47;2.60;;;2.08;;
45887;SDS011;31595;51.418;7.572;2022-09-30T13:30:30;3.10;;;2.20;;
45887;SDS011;31595;51.418;7.572;2022-09-30T13:33:04;3.67;;;2.10;;
45887;SDS011;31595;51.418;7.572;2022-09-30T13:35:50;2.88;;;2.47;;
45887;SDS011;31595;51.418;7.572;2022-09-30T13:38:18;4.65;;;2.42;;
45887;SDS011;31595;51.418;7.572;2022-09-30T13:40:50;3.00;;;2.00;;
45887;SDS011;31595;51.418;7.572;2022-09-30T13:43:25;3.08;;;1.98;;
45887;SDS011;31595;51.418;7.572;2022-09-30T13:48:32;2.72;;;2.10;;
45887;SDS011;31595;51.418;7.572;2022-09-30T13:51:02;2.45;;;1.55;;
45887;SDS011;31595;51.418;7.572;2022-09-30T13:53:33;2.97;;;1.50;;
45887;SDS011;31595;51.418;7.572;2022-09-30T13:56:05;4.03;;;1.70;;
45887;SDS011;31595;51.418;7.572;2022-09-30T13:58:42;3.33;;;1.67;;
45887;SDS011;31595;51.418;7.572;2022-09-30T14:01:29;3.25;;;1.50;;
45887;SDS011;31595;51.418;7.572;2022-09-30T14:04:22;2.10;;;1.40;;
45887;SDS011;31595;51.418;7.572;2022-09-30T14:07:13;5.50;;;1.58;;
45887;SDS011;31595;51.418;7.572;2022-09-30T14:09:53;2.83;;;1.50;;
45887;SDS011;31595;51.418;7.572;2022-09-30T14:12:33;3.17;;;1.50;;
45887;SDS011;31595;51.418;7.572;2022-09-30T14:15:16;2.13;;;1.30;;
45887;SDS011;31595;51.418;7.572;2022-09-30T14:18:21;2.00;;;1.30;;
45887;SDS011;31595;51.418;7.572;2022-09-30T14:21:03;1.90;;;1.30;;
45887;SDS011;31595;51.418;7.572;2022-09-30T14:23:45;2.67;;;1.40;;
45887;SDS011;31595;51.418;7.572;2022-09-30T14:26:28;1.90;;;1.23;;
45887;SDS011;31595;51.418;7.572;2022-09-30T14:29:11;3.60;;;1.45;;
45887;SDS011;31595;51.418;7.572;2022-09-30T14:31:51;2.47;;;1.42;;
45887;SDS011;31595;51.418;7.572;2022-09-30T14:34:21;1.73;;;1.17;;
45887;SDS011;31595;51.418;7.572;2022-09-30T14:36:50;3.03;;;1.40;;
45887;SDS011;31595;51.418;7.572;2022-09-30T14:39:20;1.98;;;1.30;;
45887;SDS011;31595;51.418;7.572;2022-09-30T14:41:53;2.40;;;1.52;;
45887;SDS011;31595;51.418;7.572;2022-09-30T14:44:24;1.98;;;1.25;;
45887;SDS011;31595;51.418;7.572;2022-09-30T14:46:55;2.28;;;1.45;;
45887;SDS011;31595;51.418;7.572;2022-09-30T14:49:26;3.75;;;1.85;;
45887;SDS011;31595;51.418;7.572;2022-09-30T14:51:59;2.85;;;1.70;;
45887;SDS011;31595;51.418;7.572;2022-09-30T14:54:28;2.67;;;1.83;;
45887;SDS011;31595;51.418;7.572;2022-09-30T14:56:58;3.33;;;1.90;;
45887;SDS011;31595;51.418;7.572;2022-09-30T14:59:27;2.58;;;1.92;;
45887;SDS011;31595;51.418;7.572;2022-09-30T15:01:58;3.10;;;1.90;;
45887;SDS011;31595;51.418;7.572;2022-09-30T15:04:32;2.50;;;1.77;;
45887;SDS011;31595;51.418;7.572;2022-09-30T15:07:12;3.80;;;2.55;;
45887;SDS011;31595;51.418;7.572;2022-09-30T15:09:40;2.40;;;1.65;;
45887;SDS011;31595;51.418;7.572;2022-09-30T15:12:10;3.22;;;1.60;;
45887;SDS011;31595;51.418;7.572;2022-09-30T15:14:44;3.10;;;1.48;;
45887;SDS011;31595;51.418;7.572;2022-09-30T15:17:19;2.13;;;1.30;;
45887;SDS011;31595;51.418;7.572;2022-09-30T15:19:51;2.97;;;1.40;;
45887;SDS011;31595;51.418;7.572;2022-09-30T15:22:20;4.13;;;1.75;;
45887;SDS011;31595;51.418;7.572;2022-09-30T15:24:50;3.53;;;1.60;;
45887;SDS011;31595;51.418;7.572;2022-09-30T15:27:20;2.97;;;1.60;;
45887;SDS011;31595;51.418;7.572;2022-09-30T15:29:54;4.20;;;1.88;;
45887;SDS011;31595;51.418;7.572;2022-09-30T15:32:23;2.97;;;1.63;;
45887;SDS011;31595;51.418;7.572;2022-09-30T15:34:53;3.92;;;1.40;;
45887;SDS011;31595;51.418;7.572;2022-09-30T15:39:46;3.17;;;1.70;;
45887;SDS011;31595;51.418;7.572;2022-09-30T15:40:34;2.47;;;1.17;;
45887;SDS011;31595;51.418;7.572;2022-09-30T15:43:15;2.22;;;1.50;;
45887;SDS011;31595;51.418;7.572;2022-09-30T15:45:58;2.15;;;1.30;;
45887;SDS011;31595;51.418;7.572;2022-09-30T15:48:44;2.72;;;1.60;;
45887;SDS011;31595;51.418;7.572;2022-09-30T15:51:22;2.83;;;1.25;;
45887;SDS011;31595;51.418;7.572;2022-09-30T15:53:52;2.58;;;1.38;;
45887;SDS011;31595;51.418;7.572;2022-09-30T15:56:26;1.75;;;0.93;;
45887;SDS011;31595;51.418;7.572;2022-09-30T15:59:01;2.47;;;1.25;;
45887;SDS011;31595;51.418;7.572;2022-09-30T16:01:36;2.78;;;1.20;;
45887;SDS011;31595;51.418;7.572;2022-09-30T16:04:10;2.20;;;1.20;;
45887;SDS011;31595;51.418;7.572;2022-09-30T16:06:49;2.15;;;1.42;;
45887;SDS011;31595;51.418;7.572;2022-09-30T16:09:21;2.90;;;2.00;;